sensor_id;sensor_type;location;lat;lon;timestamp;P1;durP1;ratioP1;P2;durP2;ratioP2
58681;SDS011;44460;40.162;18.294;2022-07-26T00:00:59;17.25;;;10.13;;
58681;SDS011;44460;40.162;18.294;2022-07-26T00:03:24;19.40;;;11.23;;
58681;SDS011;44460;40.162;18.294;2022-07-26T00:05:49;14.05;;;10.23;;
58681;SDS011;44460;40.162;18.294;2022-07-26T00:08:15;17.60;;;10.40;;
58681;SDS011;44460;40.162;18.294;2022-07-26T00:10:42;13.93;;;10.60;;
58681;SDS011;44460;40.162;18.294;2022-07-26T00:13:07;16.75;;;10.95;;
58681;SDS011;44460;40.162;18.294;2022-07-26T00:15:33;16.80;;;10.50;;
58681;SDS011;44460;40.162;18.294;2022-07-26T00:17:59;14.52;;;11.02;;
58681;SDS011;44460;40.162;18.294;2022-07-26T00:20:24;15.27;;;10.63;;
58681;SDS011;44460;40.162;18.294;2022-07-26T00:22:49;19.85;;;11.00;;
58681;SDS011;44460;40.162;18.294;2022-07-26T00:25:15;18.02;;;10.70;;
58681;SDS011;44460;40.162;18.294;2022-07-26T00:27:40;12.93;;;10.65;;
58681;SDS011;44460;40.162;18.294;2022-07-26T00:30:07;14.70;;;10.65;;
58681;SDS011;44460;40.162;18.294;2022-07-26T00:32:32;19.42;;;11.50;;
58681;SDS011;44460;40.162;18.294;2022-07-26T00:34:58;18.30;;;11.13;;
58681;SDS011;44460;40.162;18.294;2022-07-26T00:37:23;17.55;;;11.30;;
58681;SDS011;44460;40.162;18.294;2022-07-26T00:39:49;13.40;;;9.82;;
58681;SDS011;44460;40.162;18.294;2022-07-26T00:42:14;16.23;;;11.10;;
58681;SDS011;44460;40.162;18.294;2022-07-26T00:44:41;20.77;;;11.18;;
58681;SDS011;44460;40.162;18.294;2022-07-26T00:47:07;13.48;;;10.77;;
58681;SDS011;44460;40.162;18.294;2022-07-26T00:49:32;16.17;;;10.50;;
58681;SDS011;44460;40.162;18.294;2022-07-26T00:51:58;20.77;;;11.10;;
58681;SDS011;44460;40.162;18.294;2022-07-26T00:54:23;18.00;;;11.73;;
58681;SDS011;44460;40.162;18.294;2022-07-26T00:56:49;19.13;;;11.20;;
58681;SDS011;44460;40.162;18.294;2022-07-26T00:59:14;14.88;;;11.80;;
58681;SDS011;44460;40.162;18.294;2022-07-26T01:01:40;17.05;;;11.32;;
58681;SDS011;44460;40.162;18.294;2022-07-26T01:04:05;17.73;;;10.45;;
58681;SDS011;44460;40.162;18.294;2022-07-26T01:06:30;14.68;;;10.68;;
58681;SDS011;44460;40.162;18.294;2022-07-26T01:08:56;18.52;;;11.23;;
58681;SDS011;44460;40.162;18.294;2022-07-26T01:11:21;14.10;;;11.57;;
58681;SDS011;44460;40.162;18.294;2022-07-26T01:13:47;20.77;;;11.32;;
58681;SDS011;44460;40.162;18.294;2022-07-26T01:16:13;17.85;;;11.48;;
58681;SDS011;44460;40.162;18.294;2022-07-26T01:18:38;15.98;;;11.68;;
58681;SDS011;44460;40.162;18.294;2022-07-26T01:21:04;15.85;;;11.25;;
58681;SDS011;44460;40.162;18.294;2022-07-26T01:23:30;15.87;;;11.40;;
58681;SDS011;44460;40.162;18.294;2022-07-26T01:25:57;20.67;;;11.85;;
58681;SDS011;44460;40.162;18.294;2022-07-26T01:28:22;17.48;;;11.57;;
58681;SDS011;44460;40.162;18.294;2022-07-26T01:30:48;17.27;;;11.75;;
58681;SDS011;44460;40.162;18.294;2022-07-26T01:33:13;15.43;;;10.80;;
58681;SDS011;44460;40.162;18.294;2022-07-26T01:35:39;20.02;;;11.35;;
58681;SDS011;44460;40.162;18.294;2022-07-26T01:38:04;18.40;;;11.77;;
58681;SDS011;44460;40.162;18.294;2022-07-26T01:40:30;18.10;;;11.57;;
58681;SDS011;44460;40.162;18.294;2022-07-26T01:42:55;22.55;;;12.30;;
58681;SDS011;44460;40.162;18.294;2022-07-26T01:45:20;20.35;;;12.13;;
58681;SDS011;44460;40.162;18.294;2022-07-26T01:47:46;22.20;;;12.15;;
58681;SDS011;44460;40.162;18.294;2022-07-26T01:50:14;16.85;;;11.38;;
58681;SDS011;44460;40.162;18.294;2022-07-26T01:52:40;18.85;;;12.07;;
58681;SDS011;44460;40.162;18.294;2022-07-26T01:55:06;19.10;;;12.75;;
58681;SDS011;44460;40.162;18.294;2022-07-26T01:57:31;19.45;;;13.05;;
58681;SDS011;44460;40.162;18.294;2022-07-26T01:59:56;15.70;;;11.25;;
58681;SDS011;44460;40.162;18.294;2022-07-26T02:02:22;15.45;;;12.02;;
58681;SDS011;44460;40.162;18.294;2022-07-26T02:04:48;19.05;;;12.23;;
58681;SDS011;44460;40.162;18.294;2022-07-26T02:07:23;22.25;;;11.85;;
58681;SDS011;44460;40.162;18.294;2022-07-26T02:09:48;19.42;;;12.52;;
58681;SDS011;44460;40.162;18.294;2022-07-26T02:12:14;18.13;;;11.82;;
58681;SDS011;44460;40.162;18.294;2022-07-26T02:14:39;21.40;;;12.10;;
58681;SDS011;44460;40.162;18.294;2022-07-26T02:17:05;18.00;;;12.05;;
58681;SDS011;44460;40.162;18.294;2022-07-26T02:19:30;19.02;;;11.35;;
58681;SDS011;44460;40.162;18.294;2022-07-26T02:21:56;16.98;;;11.73;;
58681;SDS011;44460;40.162;18.294;2022-07-26T02:24:22;20.48;;;11.80;;
58681;SDS011;44460;40.162;18.294;2022-07-26T02:26:48;20.20;;;12.25;;
58681;SDS011;44460;40.162;18.294;2022-07-26T02:29:13;19.80;;;11.00;;
58681;SDS011;44460;40.162;18.294;2022-07-26T02:31:39;16.38;;;11.55;;
58681;SDS011;44460;40.162;18.294;2022-07-26T02:34:04;16.83;;;11.63;;
58681;SDS011;44460;40.162;18.294;2022-07-26T02:36:30;17.73;;;11.98;;
58681;SDS011;44460;40.162;18.294;2022-07-26T02:38:55;20.23;;;11.30;;
58681;SDS011;44460;40.162;18.294;2022-07-26T02:41:20;20.02;;;12.27;;
58681;SDS011;44460;40.162;18.294;2022-07-26T02:43:46;18.88;;;11.10;;
58681;SDS011;44460;40.162;18.294;2022-07-26T02:46:11;18.02;;;11.35;;
58681;SDS011;44460;40.162;18.294;2022-07-26T02:48:37;24.48;;;12.88;;
58681;SDS011;44460;40.162;18.294;2022-07-26T02:51:02;18.55;;;11.45;;
58681;SDS011;44460;40.162;18.294;2022-07-26T02:53:28;18.00;;;12.13;;
58681;SDS011;44460;40.162;18.294;2022-07-26T02:55:53;16.30;;;11.98;;
58681;SDS011;44460;40.162;18.294;2022-07-26T02:58:18;16.65;;;12.90;;
58681;SDS011;44460;40.162;18.294;2022-07-26T03:00:45;21.27;;;12.63;;
58681;SDS011;44460;40.162;18.294;2022-07-26T03:03:11;20.63;;;12.77;;
58681;SDS011;44460;40.162;18.294;2022-07-26T03:05:38;20.33;;;12.43;;
58681;SDS011;44460;40.162;18.294;2022-07-26T03:08:03;18.23;;;12.90;;
58681;SDS011;44460;40.162;18.294;2022-07-26T03:10:29;21.17;;;14.07;;
58681;SDS011;44460;40.162;18.294;2022-07-26T03:12:54;22.90;;;13.20;;
58681;SDS011;44460;40.162;18.294;2022-07-26T03:15:20;20.27;;;13.65;;
58681;SDS011;44460;40.162;18.294;2022-07-26T03:17:45;17.35;;;13.02;;
58681;SDS011;44460;40.162;18.294;2022-07-26T03:20:11;19.75;;;13.40;;
58681;SDS011;44460;40.162;18.294;2022-07-26T03:22:51;17.67;;;14.40;;
58681;SDS011;44460;40.162;18.294;2022-07-26T03:25:17;22.02;;;13.88;;
58681;SDS011;44460;40.162;18.294;2022-07-26T03:27:42;20.83;;;13.70;;
58681;SDS011;44460;40.162;18.294;2022-07-26T03:30:08;17.70;;;13.55;;
58681;SDS011;44460;40.162;18.294;2022-07-26T03:32:34;22.15;;;15.30;;
58681;SDS011;44460;40.162;18.294;2022-07-26T03:34:59;19.50;;;14.35;;
58681;SDS011;44460;40.162;18.294;2022-07-26T03:37:24;18.33;;;13.65;;
58681;SDS011;44460;40.162;18.294;2022-07-26T03:39:50;23.50;;;14.50;;
58681;SDS011;44460;40.162;18.294;2022-07-26T03:42:15;23.00;;;14.60;;
58681;SDS011;44460;40.162;18.294;2022-07-26T03:44:41;20.88;;;14.13;;
58681;SDS011;44460;40.162;18.294;2022-07-26T03:47:07;18.67;;;14.82;;
58681;SDS011;44460;40.162;18.294;2022-07-26T03:49:33;17.08;;;13.57;;
58681;SDS011;44460;40.162;18.294;2022-07-26T03:51:58;20.33;;;14.25;;
58681;SDS011;44460;40.162;18.294;2022-07-26T03:54:24;17.55;;;13.18;;
58681;SDS011;44460;40.162;18.294;2022-07-26T03:56:49;18.73;;;13.45;;
58681;SDS011;44460;40.162;18.294;2022-07-26T03:59:15;26.15;;;13.95;;
58681;SDS011;44460;40.162;18.294;2022-07-26T04:01:41;18.88;;;13.25;;
58681;SDS011;44460;40.162;18.294;2022-07-26T04:04:08;19.27;;;14.75;;
58681;SDS011;44460;40.162;18.294;2022-07-26T04:06:33;20.65;;;12.85;;
58681;SDS011;44460;40.162;18.294;2022-07-26T04:08:59;18.20;;;12.55;;
58681;SDS011;44460;40.162;18.294;2022-07-26T04:11:24;20.88;;;13.63;;
58681;SDS011;44460;40.162;18.294;2022-07-26T04:13:50;19.77;;;13.32;;
58681;SDS011;44460;40.162;18.294;2022-07-26T04:16:15;16.70;;;13.55;;
58681;SDS011;44460;40.162;18.294;2022-07-26T04:18:41;23.35;;;14.52;;
58681;SDS011;44460;40.162;18.294;2022-07-26T04:21:06;30.02;;;13.52;;
58681;SDS011;44460;40.162;18.294;2022-07-26T04:23:32;16.20;;;13.02;;
58681;SDS011;44460;40.162;18.294;2022-07-26T04:25:57;21.27;;;12.93;;
58681;SDS011;44460;40.162;18.294;2022-07-26T04:28:23;17.95;;;12.70;;
58681;SDS011;44460;40.162;18.294;2022-07-26T04:30:53;18.17;;;11.60;;
58681;SDS011;44460;40.162;18.294;2022-07-26T04:33:18;16.35;;;11.82;;
58681;SDS011;44460;40.162;18.294;2022-07-26T04:35:43;14.77;;;11.00;;
58681;SDS011;44460;40.162;18.294;2022-07-26T04:38:09;15.18;;;9.68;;
58681;SDS011;44460;40.162;18.294;2022-07-26T04:40:34;11.95;;;9.13;;
58681;SDS011;44460;40.162;18.294;2022-07-26T04:43:00;14.35;;;10.05;;
58681;SDS011;44460;40.162;18.294;2022-07-26T04:45:25;16.67;;;9.18;;
58681;SDS011;44460;40.162;18.294;2022-07-26T04:47:51;13.93;;;8.82;;
58681;SDS011;44460;40.162;18.294;2022-07-26T04:50:17;26.65;;;9.73;;
58681;SDS011;44460;40.162;18.294;2022-07-26T04:52:43;18.67;;;10.60;;
58681;SDS011;44460;40.162;18.294;2022-07-26T04:55:09;18.25;;;10.77;;
58681;SDS011;44460;40.162;18.294;2022-07-26T04:57:35;15.40;;;10.65;;
58681;SDS011;44460;40.162;18.294;2022-07-26T05:00:00;18.95;;;9.85;;
58681;SDS011;44460;40.162;18.294;2022-07-26T05:02:26;22.20;;;11.70;;
58681;SDS011;44460;40.162;18.294;2022-07-26T05:04:51;26.15;;;10.38;;
58681;SDS011;44460;40.162;18.294;2022-07-26T05:07:17;16.35;;;9.75;;
58681;SDS011;44460;40.162;18.294;2022-07-26T05:09:43;35.47;;;10.93;;
58681;SDS011;44460;40.162;18.294;2022-07-26T05:12:09;20.63;;;10.13;;
58681;SDS011;44460;40.162;18.294;2022-07-26T05:14:35;17.63;;;9.77;;
58681;SDS011;44460;40.162;18.294;2022-07-26T05:17:02;14.70;;;9.70;;
58681;SDS011;44460;40.162;18.294;2022-07-26T05:19:27;17.77;;;9.13;;
58681;SDS011;44460;40.162;18.294;2022-07-26T05:21:53;24.67;;;9.73;;
58681;SDS011;44460;40.162;18.294;2022-07-26T05:24:18;18.80;;;10.45;;
58681;SDS011;44460;40.162;18.294;2022-07-26T05:26:43;18.88;;;9.40;;
58681;SDS011;44460;40.162;18.294;2022-07-26T05:29:09;15.55;;;9.23;;
58681;SDS011;44460;40.162;18.294;2022-07-26T05:31:35;10.48;;;7.72;;
58681;SDS011;44460;40.162;18.294;2022-07-26T05:34:00;12.70;;;7.05;;
58681;SDS011;44460;40.162;18.294;2022-07-26T05:38:53;14.18;;;8.45;;
58681;SDS011;44460;40.162;18.294;2022-07-26T05:41:18;10.68;;;7.20;;
58681;SDS011;44460;40.162;18.294;2022-07-26T05:43:43;17.45;;;7.15;;
58681;SDS011;44460;40.162;18.294;2022-07-26T05:46:09;13.38;;;7.05;;
58681;SDS011;44460;40.162;18.294;2022-07-26T05:48:35;12.53;;;7.27;;
58681;SDS011;44460;40.162;18.294;2022-07-26T05:51:01;9.93;;;7.13;;
58681;SDS011;44460;40.162;18.294;2022-07-26T05:53:26;11.70;;;7.47;;
58681;SDS011;44460;40.162;18.294;2022-07-26T05:55:52;9.90;;;7.30;;
58681;SDS011;44460;40.162;18.294;2022-07-26T05:58:17;15.27;;;7.47;;
58681;SDS011;44460;40.162;18.294;2022-07-26T06:00:43;21.10;;;7.25;;
58681;SDS011;44460;40.162;18.294;2022-07-26T06:03:08;11.20;;;7.17;;
58681;SDS011;44460;40.162;18.294;2022-07-26T06:05:51;12.30;;;7.28;;
58681;SDS011;44460;40.162;18.294;2022-07-26T06:10:42;10.93;;;7.63;;
58681;SDS011;44460;40.162;18.294;2022-07-26T06:13:07;15.57;;;7.25;;
58681;SDS011;44460;40.162;18.294;2022-07-26T06:15:33;15.77;;;7.10;;
58681;SDS011;44460;40.162;18.294;2022-07-26T06:17:58;18.48;;;7.78;;
58681;SDS011;44460;40.162;18.294;2022-07-26T06:20:23;11.17;;;7.60;;
58681;SDS011;44460;40.162;18.294;2022-07-26T06:22:49;14.07;;;7.30;;
58681;SDS011;44460;40.162;18.294;2022-07-26T06:25:15;11.55;;;7.20;;
58681;SDS011;44460;40.162;18.294;2022-07-26T06:27:41;11.77;;;7.00;;
58681;SDS011;44460;40.162;18.294;2022-07-26T06:30:06;14.50;;;7.27;;
58681;SDS011;44460;40.162;18.294;2022-07-26T06:32:32;11.07;;;7.57;;
58681;SDS011;44460;40.162;18.294;2022-07-26T06:34:57;11.38;;;7.45;;
58681;SDS011;44460;40.162;18.294;2022-07-26T06:37:23;11.40;;;7.53;;
58681;SDS011;44460;40.162;18.294;2022-07-26T06:39:48;14.70;;;8.13;;
58681;SDS011;44460;40.162;18.294;2022-07-26T06:42:14;10.50;;;7.40;;
58681;SDS011;44460;40.162;18.294;2022-07-26T06:44:39;10.57;;;7.47;;
58681;SDS011;44460;40.162;18.294;2022-07-26T06:47:05;10.07;;;7.78;;
58681;SDS011;44460;40.162;18.294;2022-07-26T06:49:30;13.70;;;8.30;;
58681;SDS011;44460;40.162;18.294;2022-07-26T06:51:55;11.73;;;8.25;;
58681;SDS011;44460;40.162;18.294;2022-07-26T06:54:22;14.90;;;8.47;;
58681;SDS011;44460;40.162;18.294;2022-07-26T06:56:47;15.00;;;8.55;;
58681;SDS011;44460;40.162;18.294;2022-07-26T06:59:13;15.63;;;9.07;;
58681;SDS011;44460;40.162;18.294;2022-07-26T07:01:38;14.57;;;8.70;;
58681;SDS011;44460;40.162;18.294;2022-07-26T07:04:04;11.60;;;8.83;;
58681;SDS011;44460;40.162;18.294;2022-07-26T07:06:29;13.60;;;8.35;;
58681;SDS011;44460;40.162;18.294;2022-07-26T07:08:54;14.02;;;8.63;;
58681;SDS011;44460;40.162;18.294;2022-07-26T07:11:20;10.10;;;8.25;;
58681;SDS011;44460;40.162;18.294;2022-07-26T07:13:45;12.10;;;8.57;;
58681;SDS011;44460;40.162;18.294;2022-07-26T07:16:11;12.15;;;9.38;;
58681;SDS011;44460;40.162;18.294;2022-07-26T07:18:36;12.30;;;8.40;;
58681;SDS011;44460;40.162;18.294;2022-07-26T07:21:02;17.80;;;8.38;;
58681;SDS011;44460;40.162;18.294;2022-07-26T07:23:27;21.33;;;8.67;;
58681;SDS011;44460;40.162;18.294;2022-07-26T07:25:52;12.75;;;8.32;;
58681;SDS011;44460;40.162;18.294;2022-07-26T07:28:18;12.90;;;7.97;;
58681;SDS011;44460;40.162;18.294;2022-07-26T07:30:43;12.20;;;8.13;;
58681;SDS011;44460;40.162;18.294;2022-07-26T07:33:09;18.73;;;9.13;;
58681;SDS011;44460;40.162;18.294;2022-07-26T07:35:37;13.20;;;8.20;;
58681;SDS011;44460;40.162;18.294;2022-07-26T07:38:02;22.00;;;8.00;;
58681;SDS011;44460;40.162;18.294;2022-07-26T07:40:28;11.93;;;8.73;;
58681;SDS011;44460;40.162;18.294;2022-07-26T07:42:53;17.00;;;7.37;;
58681;SDS011;44460;40.162;18.294;2022-07-26T07:45:19;15.90;;;7.40;;
58681;SDS011;44460;40.162;18.294;2022-07-26T07:47:44;12.83;;;7.73;;
58681;SDS011;44460;40.162;18.294;2022-07-26T07:50:09;20.30;;;8.10;;
58681;SDS011;44460;40.162;18.294;2022-07-26T07:52:35;17.57;;;8.10;;
58681;SDS011;44460;40.162;18.294;2022-07-26T07:55:00;24.20;;;7.83;;
58681;SDS011;44460;40.162;18.294;2022-07-26T07:57:26;12.70;;;7.30;;
58681;SDS011;44460;40.162;18.294;2022-07-26T07:59:51;21.27;;;7.70;;
58681;SDS011;44460;40.162;18.294;2022-07-26T08:02:17;16.47;;;7.53;;
58681;SDS011;44460;40.162;18.294;2022-07-26T08:04:45;10.90;;;7.32;;
58681;SDS011;44460;40.162;18.294;2022-07-26T08:07:11;19.55;;;8.02;;
58681;SDS011;44460;40.162;18.294;2022-07-26T08:09:37;12.38;;;7.20;;
58681;SDS011;44460;40.162;18.294;2022-07-26T08:12:03;10.57;;;7.70;;
58681;SDS011;44460;40.162;18.294;2022-07-26T08:14:28;16.63;;;7.50;;
58681;SDS011;44460;40.162;18.294;2022-07-26T08:16:54;15.27;;;7.33;;
58681;SDS011;44460;40.162;18.294;2022-07-26T08:19:19;20.43;;;8.00;;
58681;SDS011;44460;40.162;18.294;2022-07-26T08:21:45;13.23;;;7.23;;
58681;SDS011;44460;40.162;18.294;2022-07-26T08:24:10;11.63;;;7.40;;
58681;SDS011;44460;40.162;18.294;2022-07-26T08:26:36;18.40;;;7.57;;
58681;SDS011;44460;40.162;18.294;2022-07-26T08:29:02;10.33;;;7.27;;
58681;SDS011;44460;40.162;18.294;2022-07-26T08:31:27;14.33;;;7.07;;
58681;SDS011;44460;40.162;18.294;2022-07-26T08:33:53;12.40;;;7.57;;
58681;SDS011;44460;40.162;18.294;2022-07-26T08:36:18;12.20;;;7.50;;
58681;SDS011;44460;40.162;18.294;2022-07-26T08:38:44;12.07;;;7.97;;
58681;SDS011;44460;40.162;18.294;2022-07-26T08:41:09;9.83;;;6.80;;
58681;SDS011;44460;40.162;18.294;2022-07-26T08:43:35;9.73;;;7.03;;
58681;SDS011;44460;40.162;18.294;2022-07-26T08:46:00;15.27;;;8.17;;
58681;SDS011;44460;40.162;18.294;2022-07-26T08:48:29;10.18;;;7.40;;
58681;SDS011;44460;40.162;18.294;2022-07-26T08:50:55;14.30;;;7.67;;
58681;SDS011;44460;40.162;18.294;2022-07-26T08:53:21;14.18;;;7.35;;
58681;SDS011;44460;40.162;18.294;2022-07-26T08:55:47;11.65;;;7.57;;
58681;SDS011;44460;40.162;18.294;2022-07-26T08:58:12;11.80;;;6.90;;
58681;SDS011;44460;40.162;18.294;2022-07-26T09:00:38;15.15;;;7.15;;
58681;SDS011;44460;40.162;18.294;2022-07-26T09:03:05;10.20;;;7.72;;
58681;SDS011;44460;40.162;18.294;2022-07-26T09:05:34;13.30;;;7.17;;
58681;SDS011;44460;40.162;18.294;2022-07-26T09:08:01;12.43;;;6.57;;
58681;SDS011;44460;40.162;18.294;2022-07-26T09:10:45;15.90;;;7.70;;
58681;SDS011;44460;40.162;18.294;2022-07-26T09:13:10;11.80;;;7.23;;
58681;SDS011;44460;40.162;18.294;2022-07-26T09:15:36;16.37;;;6.80;;
58681;SDS011;44460;40.162;18.294;2022-07-26T09:18:01;11.70;;;7.30;;
58681;SDS011;44460;40.162;18.294;2022-07-26T09:20:28;13.57;;;6.30;;
58681;SDS011;44460;40.162;18.294;2022-07-26T09:23:07;11.05;;;6.78;;
58681;SDS011;44460;40.162;18.294;2022-07-26T09:25:34;10.40;;;6.13;;
58681;SDS011;44460;40.162;18.294;2022-07-26T09:30:27;11.63;;;6.50;;
58681;SDS011;44460;40.162;18.294;2022-07-26T09:32:57;12.13;;;7.05;;
58681;SDS011;44460;40.162;18.294;2022-07-26T09:35:23;13.63;;;7.13;;
58681;SDS011;44460;40.162;18.294;2022-07-26T09:37:48;10.87;;;7.50;;
58681;SDS011;44460;40.162;18.294;2022-07-26T09:40:15;21.80;;;7.27;;
58681;SDS011;44460;40.162;18.294;2022-07-26T09:42:54;10.63;;;6.22;;
58681;SDS011;44460;40.162;18.294;2022-07-26T09:45:20;12.68;;;7.05;;
58681;SDS011;44460;40.162;18.294;2022-07-26T09:47:45;15.43;;;7.07;;
58681;SDS011;44460;40.162;18.294;2022-07-26T09:50:12;15.43;;;7.23;;
58681;SDS011;44460;40.162;18.294;2022-07-26T09:52:37;13.68;;;6.85;;
58681;SDS011;44460;40.162;18.294;2022-07-26T09:55:06;13.27;;;7.60;;
58681;SDS011;44460;40.162;18.294;2022-07-26T09:57:32;11.65;;;6.93;;
58681;SDS011;44460;40.162;18.294;2022-07-26T10:00:00;12.88;;;6.47;;
58681;SDS011;44460;40.162;18.294;2022-07-26T10:02:29;9.60;;;6.10;;
58681;SDS011;44460;40.162;18.294;2022-07-26T10:04:55;12.37;;;6.73;;
58681;SDS011;44460;40.162;18.294;2022-07-26T10:07:20;14.00;;;6.63;;
58681;SDS011;44460;40.162;18.294;2022-07-26T10:09:51;12.53;;;6.93;;
58681;SDS011;44460;40.162;18.294;2022-07-26T10:12:18;12.57;;;7.35;;
58681;SDS011;44460;40.162;18.294;2022-07-26T10:14:45;14.43;;;6.68;;
58681;SDS011;44460;40.162;18.294;2022-07-26T10:20:05;12.48;;;6.30;;
58681;SDS011;44460;40.162;18.294;2022-07-26T10:27:44;13.35;;;6.88;;
58681;SDS011;44460;40.162;18.294;2022-07-26T10:37:59;13.77;;;7.30;;
58681;SDS011;44460;40.162;18.294;2022-07-26T10:40:24;13.38;;;7.97;;
58681;SDS011;44460;40.162;18.294;2022-07-26T10:43:09;10.50;;;7.15;;
58681;SDS011;44460;40.162;18.294;2022-07-26T10:45:35;16.98;;;7.32;;
58681;SDS011;44460;40.162;18.294;2022-07-26T10:50:32;13.43;;;7.68;;
58681;SDS011;44460;40.162;18.294;2022-07-26T10:52:58;11.33;;;7.97;;
58681;SDS011;44460;40.162;18.294;2022-07-26T10:55:24;17.15;;;8.45;;
58681;SDS011;44460;40.162;18.294;2022-07-26T10:57:49;11.90;;;7.57;;
58681;SDS011;44460;40.162;18.294;2022-07-26T11:00:22;14.60;;;7.90;;
58681;SDS011;44460;40.162;18.294;2022-07-26T11:02:51;12.45;;;7.35;;
58681;SDS011;44460;40.162;18.294;2022-07-26T11:05:17;11.15;;;7.85;;
58681;SDS011;44460;40.162;18.294;2022-07-26T11:10:15;17.25;;;8.05;;
58681;SDS011;44460;40.162;18.294;2022-07-26T11:12:40;12.63;;;8.13;;
58681;SDS011;44460;40.162;18.294;2022-07-26T11:15:12;10.13;;;7.07;;
58681;SDS011;44460;40.162;18.294;2022-07-26T11:17:38;16.90;;;8.25;;
58681;SDS011;44460;40.162;18.294;2022-07-26T11:20:03;15.90;;;8.43;;
58681;SDS011;44460;40.162;18.294;2022-07-26T11:22:30;14.70;;;8.03;;
58681;SDS011;44460;40.162;18.294;2022-07-26T11:24:55;12.90;;;7.57;;
58681;SDS011;44460;40.162;18.294;2022-07-26T11:27:21;17.13;;;7.50;;
58681;SDS011;44460;40.162;18.294;2022-07-26T11:29:47;13.63;;;7.57;;
58681;SDS011;44460;40.162;18.294;2022-07-26T11:32:17;12.47;;;7.70;;
58681;SDS011;44460;40.162;18.294;2022-07-26T11:34:42;13.82;;;8.02;;
58681;SDS011;44460;40.162;18.294;2022-07-26T11:37:09;17.70;;;8.55;;
58681;SDS011;44460;40.162;18.294;2022-07-26T11:39:35;16.30;;;8.33;;
58681;SDS011;44460;40.162;18.294;2022-07-26T11:44:26;12.50;;;8.67;;
58681;SDS011;44460;40.162;18.294;2022-07-26T11:46:52;11.50;;;8.40;;
58681;SDS011;44460;40.162;18.294;2022-07-26T11:49:18;13.13;;;8.57;;
58681;SDS011;44460;40.162;18.294;2022-07-26T11:54:09;13.17;;;8.70;;
58681;SDS011;44460;40.162;18.294;2022-07-26T11:56:34;16.43;;;8.77;;
58681;SDS011;44460;40.162;18.294;2022-07-26T11:59:00;10.50;;;8.33;;
58681;SDS011;44460;40.162;18.294;2022-07-26T12:01:26;15.73;;;8.77;;
58681;SDS011;44460;40.162;18.294;2022-07-26T12:03:52;15.23;;;9.80;;
58681;SDS011;44460;40.162;18.294;2022-07-26T12:06:19;12.85;;;9.73;;
58681;SDS011;44460;40.162;18.294;2022-07-26T12:11:17;15.82;;;8.85;;
58681;SDS011;44460;40.162;18.294;2022-07-26T12:13:49;12.18;;;8.88;;
58681;SDS011;44460;40.162;18.294;2022-07-26T12:18:59;15.50;;;9.70;;
58681;SDS011;44460;40.162;18.294;2022-07-26T12:21:44;12.00;;;8.77;;
58681;SDS011;44460;40.162;18.294;2022-07-26T12:24:10;14.48;;;9.20;;
58681;SDS011;44460;40.162;18.294;2022-07-26T12:26:36;13.65;;;10.60;;
58681;SDS011;44460;40.162;18.294;2022-07-26T12:29:02;12.60;;;10.07;;
58681;SDS011;44460;40.162;18.294;2022-07-26T12:31:58;13.93;;;9.55;;
58681;SDS011;44460;40.162;18.294;2022-07-26T12:34:24;15.90;;;9.50;;
58681;SDS011;44460;40.162;18.294;2022-07-26T12:36:49;22.37;;;8.73;;
58681;SDS011;44460;40.162;18.294;2022-07-26T12:39:21;13.40;;;8.93;;
58681;SDS011;44460;40.162;18.294;2022-07-26T12:41:46;12.75;;;9.00;;
58681;SDS011;44460;40.162;18.294;2022-07-26T12:44:14;17.67;;;9.73;;
58681;SDS011;44460;40.162;18.294;2022-07-26T12:46:40;14.20;;;11.00;;
58681;SDS011;44460;40.162;18.294;2022-07-26T12:49:08;13.23;;;9.32;;
58681;SDS011;44460;40.162;18.294;2022-07-26T12:51:34;16.17;;;9.33;;
58681;SDS011;44460;40.162;18.294;2022-07-26T12:54:00;21.52;;;9.13;;
58681;SDS011;44460;40.162;18.294;2022-07-26T12:56:27;16.77;;;9.70;;
58681;SDS011;44460;40.162;18.294;2022-07-26T12:58:53;18.93;;;10.63;;
58681;SDS011;44460;40.162;18.294;2022-07-26T13:01:24;16.10;;;10.65;;
58681;SDS011;44460;40.162;18.294;2022-07-26T13:03:50;14.93;;;10.63;;
58681;SDS011;44460;40.162;18.294;2022-07-26T13:06:15;16.33;;;10.73;;
58681;SDS011;44460;40.162;18.294;2022-07-26T13:08:41;17.70;;;9.03;;
58681;SDS011;44460;40.162;18.294;2022-07-26T13:11:06;13.37;;;9.90;;
58681;SDS011;44460;40.162;18.294;2022-07-26T13:13:32;12.43;;;9.43;;
58681;SDS011;44460;40.162;18.294;2022-07-26T13:15:57;15.80;;;9.60;;
58681;SDS011;44460;40.162;18.294;2022-07-26T13:18:23;13.27;;;9.37;;
58681;SDS011;44460;40.162;18.294;2022-07-26T13:20:48;12.90;;;8.13;;
58681;SDS011;44460;40.162;18.294;2022-07-26T13:23:14;17.67;;;9.57;;
58681;SDS011;44460;40.162;18.294;2022-07-26T13:25:39;17.13;;;9.73;;
58681;SDS011;44460;40.162;18.294;2022-07-26T13:28:05;11.90;;;9.27;;
58681;SDS011;44460;40.162;18.294;2022-07-26T13:30:30;16.23;;;9.20;;
58681;SDS011;44460;40.162;18.294;2022-07-26T13:32:55;11.37;;;8.47;;
58681;SDS011;44460;40.162;18.294;2022-07-26T13:35:21;16.63;;;8.93;;
58681;SDS011;44460;40.162;18.294;2022-07-26T13:37:47;15.07;;;8.70;;
58681;SDS011;44460;40.162;18.294;2022-07-26T13:40:12;17.77;;;9.23;;
58681;SDS011;44460;40.162;18.294;2022-07-26T13:42:38;19.53;;;9.77;;
58681;SDS011;44460;40.162;18.294;2022-07-26T13:45:04;11.53;;;8.80;;
58681;SDS011;44460;40.162;18.294;2022-07-26T13:47:30;16.33;;;8.30;;
58681;SDS011;44460;40.162;18.294;2022-07-26T13:49:55;11.63;;;8.20;;
58681;SDS011;44460;40.162;18.294;2022-07-26T13:52:20;13.60;;;8.87;;
58681;SDS011;44460;40.162;18.294;2022-07-26T13:54:46;18.23;;;9.13;;
58681;SDS011;44460;40.162;18.294;2022-07-26T13:57:11;17.90;;;8.57;;
58681;SDS011;44460;40.162;18.294;2022-07-26T13:59:37;14.63;;;9.33;;
58681;SDS011;44460;40.162;18.294;2022-07-26T14:02:02;13.47;;;8.87;;
58681;SDS011;44460;40.162;18.294;2022-07-26T14:04:29;12.75;;;9.23;;
58681;SDS011;44460;40.162;18.294;2022-07-26T14:06:54;12.53;;;8.57;;
58681;SDS011;44460;40.162;18.294;2022-07-26T14:09:20;15.47;;;8.47;;
58681;SDS011;44460;40.162;18.294;2022-07-26T14:11:45;12.83;;;8.30;;
58681;SDS011;44460;40.162;18.294;2022-07-26T14:14:11;12.37;;;7.80;;
58681;SDS011;44460;40.162;18.294;2022-07-26T14:16:37;14.60;;;8.53;;
58681;SDS011;44460;40.162;18.294;2022-07-26T14:19:03;17.15;;;8.52;;
58681;SDS011;44460;40.162;18.294;2022-07-26T14:21:29;14.10;;;7.90;;
58681;SDS011;44460;40.162;18.294;2022-07-26T14:23:56;14.75;;;8.18;;
58681;SDS011;44460;40.162;18.294;2022-07-26T14:26:21;13.20;;;8.10;;
58681;SDS011;44460;40.162;18.294;2022-07-26T14:28:47;9.07;;;6.93;;
58681;SDS011;44460;40.162;18.294;2022-07-26T14:31:12;14.00;;;8.07;;
58681;SDS011;44460;40.162;18.294;2022-07-26T14:33:38;20.30;;;14.73;;
58681;SDS011;44460;40.162;18.294;2022-07-26T14:36:04;11.63;;;7.50;;
58681;SDS011;44460;40.162;18.294;2022-07-26T14:38:29;13.93;;;7.87;;
58681;SDS011;44460;40.162;18.294;2022-07-26T14:40:55;22.10;;;8.47;;
58681;SDS011;44460;40.162;18.294;2022-07-26T14:43:23;24.73;;;8.68;;
58681;SDS011;44460;40.162;18.294;2022-07-26T14:45:48;13.52;;;8.05;;
58681;SDS011;44460;40.162;18.294;2022-07-26T14:48:14;15.10;;;8.43;;